createdAt,value
2019-05-30T00:02:15.662Z,101514.59
2019-05-30T00:04:44.104Z,101519.61
2019-05-30T00:07:12.519Z,101519.89
2019-05-30T00:09:42.374Z,101518.17
2019-05-30T00:12:10.803Z,101521.09
2019-05-30T00:14:39.225Z,101514.39
2019-05-30T00:17:07.671Z,101510.98
2019-05-30T00:19:36.143Z,101520.09
2019-05-30T00:22:05.550Z,101521.25
2019-05-30T00:24:34.234Z,101523.22
2019-05-30T00:27:02.684Z,101518.77
2019-05-30T00:29:31.121Z,101513.62
2019-05-30T00:31:59.550Z,101510.41
2019-05-30T00:34:28.024Z,101503.95
2019-05-30T00:36:57.672Z,101509.93
2019-05-30T00:39:26.222Z,101509.61
2019-05-30T00:41:55.969Z,101506.55
2019-05-30T00:44:24.442Z,101513.06
2019-05-30T00:46:52.906Z,101513.78
2019-05-30T00:49:21.336Z,101510.25
2019-05-30T00:51:49.753Z,101510.41
2019-05-30T00:54:18.183Z,101506.75
2019-05-30T00:56:46.587Z,101505.22
2019-05-30T00:59:15.104Z,101502.23
2019-05-30T01:01:43.528Z,101506.14
2019-05-30T01:04:12.024Z,101497.19
2019-05-30T01:06:40.439Z,101490.89
2019-05-30T01:09:08.920Z,101496.19
2019-05-30T01:11:37.346Z,101501.56
2019-05-30T01:14:07.342Z,101505.06
2019-05-30T01:16:35.920Z,101498.80
2019-05-30T01:19:05.290Z,101500.52
2019-05-30T01:21:33.838Z,101496.38
2019-05-30T01:24:03.523Z,101497.30
2019-05-30T01:26:32.054Z,101495.05
2019-05-30T01:29:01.466Z,101499.62
2019-05-30T01:31:29.891Z,101493.06
2019-05-30T01:33:59.408Z,101493.30
2019-05-30T01:36:28.010Z,101489.77
2019-05-30T01:38:57.600Z,101493.30
2019-05-30T01:41:26.157Z,101496.45
2019-05-30T01:43:54.576Z,101496.05
2019-05-30T01:46:23.063Z,101496.23
2019-05-30T01:48:51.490Z,101489.84
2019-05-30T01:51:19.921Z,101487.94
2019-05-30T01:53:48.368Z,101489.14
2019-05-30T01:56:16.809Z,101493.81
2019-05-30T01:58:45.219Z,101485.09
2019-05-30T02:01:24.322Z,101486.27
2019-05-30T02:03:43.793Z,101478.55
2019-05-30T02:06:12.252Z,101484.77
2019-05-30T02:08:40.697Z,101480.73
2019-05-30T02:11:09.580Z,101475.39
2019-05-30T02:13:38.030Z,101478.03
2019-05-30T02:16:07.724Z,101473.66
2019-05-30T02:18:36.343Z,101474.98
2019-05-30T02:21:05.863Z,101474.88
2019-05-30T02:23:34.457Z,101475.32
2019-05-30T02:26:04.022Z,101476.98
2019-05-30T02:28:32.477Z,101477.30
2019-05-30T02:31:02.754Z,101470.81
2019-05-30T02:33:31.068Z,101475.79
2019-05-30T02:36:01.293Z,101480.97
2019-05-30T02:38:29.671Z,101487.97
2019-05-30T02:40:58.153Z,101482.02
2019-05-30T02:43:26.582Z,101486.24
2019-05-30T02:45:55.003Z,101476.83
2019-05-30T02:48:23.457Z,101485.80
2019-05-30T02:50:51.844Z,101486.83
2019-05-30T02:53:20.262Z,101489.17
2019-05-30T02:55:48.693Z,101491.45
2019-05-30T02:58:17.138Z,101490.16
2019-05-30T03:00:45.547Z,101493.77
2019-05-30T03:03:14.837Z,101488.95
2019-05-30T03:05:43.488Z,101495.80
2019-05-30T03:08:14.298Z,101488.66
2019-05-30T03:10:42.635Z,101492.22
2019-05-30T03:13:12.918Z,101492.22
2019-05-30T03:15:41.555Z,101489.76
2019-05-30T03:18:12.265Z,101491.75
2019-05-30T03:20:40.326Z,101494.55
2019-05-30T03:23:10.494Z,101493.95
2019-05-30T03:25:38.891Z,101492.62
2019-05-30T03:28:08.898Z,101488.54
2019-05-30T03:30:37.525Z,101493.02
2019-05-30T03:33:21.954Z,101492.51
2019-05-30T03:35:42.982Z,101498.22
2019-05-30T03:38:08.741Z,101496.89
2019-05-30T03:40:36.949Z,101499.24
2019-05-30T03:43:09.182Z,101498.02
2019-05-30T03:45:39.200Z,101501.66
2019-05-30T03:48:12.062Z,101505.30
2019-05-30T03:50:44.016Z,101499.91
2019-05-30T03:53:14.348Z,101505.84
2019-05-30T03:55:45.037Z,101507.25
2019-05-30T03:58:19.934Z,101509.21
2019-05-30T04:00:58.394Z,101515.30
2019-05-30T04:03:52.412Z,101512.05
2019-05-30T04:06:29.689Z,101509.20
2019-05-30T04:09:01.173Z,101504.84
2019-05-30T04:11:35.388Z,101506.14
2019-05-30T04:14:06.884Z,101515.21
2019-05-30T04:16:35.728Z,101510.22
2019-05-30T04:19:04.224Z,101512.97
2019-05-30T04:21:32.658Z,101511.59
2019-05-30T04:24:02.600Z,101519.25
2019-05-30T04:26:31.025Z,101512.50
2019-05-30T04:28:59.458Z,101515.55
2019-05-30T04:31:27.869Z,101514.34
2019-05-30T04:33:56.301Z,101510.27
2019-05-30T04:36:24.713Z,101507.83
2019-05-30T04:38:53.137Z,101417.08
2019-05-30T04:41:21.576Z,101517.96
2019-05-30T04:43:50.017Z,101515.86
2019-05-30T04:46:19.551Z,101514.03
2019-05-30T04:48:48.573Z,101517.55
2019-05-30T04:51:19.019Z,101516.83
2019-05-30T04:53:47.150Z,101522.84
2019-05-30T04:56:17.145Z,101527.87
2019-05-30T04:58:45.780Z,101526.64
2019-05-30T05:01:15.445Z,101523.09
2019-05-30T05:03:46.537Z,101534.03
2019-05-30T05:06:15.828Z,101526.47
2019-05-30T05:08:44.463Z,101533.56
2019-05-30T05:11:16.475Z,101524.83
2019-05-30T05:13:43.050Z,101532.05
2019-05-30T05:16:23.036Z,101527.25
2019-05-30T05:18:41.611Z,101528.27
2019-05-30T05:21:10.050Z,101539.69
2019-05-30T05:23:38.544Z,101534.50
2019-05-30T05:26:06.969Z,101537.27
2019-05-30T05:28:35.388Z,101542.02
2019-05-30T05:31:03.880Z,101541.30
2019-05-30T05:33:32.297Z,101534.72
2019-05-30T05:36:00.722Z,101542.19
2019-05-30T05:38:29.136Z,101535.48
2019-05-30T05:40:57.569Z,101536.37
2019-05-30T05:43:25.994Z,101536.27
2019-05-30T05:45:54.425Z,101544.59
2019-05-30T05:48:22.840Z,101537.88
2019-05-30T05:50:51.374Z,101543.44
2019-05-30T05:53:20.885Z,101551.44
2019-05-30T05:55:49.412Z,101555.39
2019-05-30T05:58:18.993Z,101563.16
2019-05-30T06:00:47.566Z,101559.14
2019-05-30T06:03:16.826Z,101554.70
2019-05-30T06:05:52.941Z,101559.72
2019-05-30T06:08:17.379Z,101562.87
2019-05-30T06:10:45.904Z,101565.30
2019-05-30T06:13:14.328Z,101567.39
2019-05-30T06:15:42.747Z,101570.25
2019-05-30T06:18:11.220Z,101571.94
2019-05-30T06:20:39.603Z,101570.09
2019-05-30T06:23:08.025Z,101574.22
2019-05-30T06:25:36.454Z,101576.82
2019-05-30T06:28:05.032Z,101581.77
2019-05-30T06:30:33.474Z,101579.09
2019-05-30T06:33:01.932Z,101581.25
2019-05-30T06:35:30.348Z,101578.91
2019-05-30T06:37:58.770Z,101582.42
2019-05-30T06:40:30.837Z,101594.38
2019-05-30T06:42:58.532Z,101588.19
2019-05-30T06:45:28.281Z,101589.42
2019-05-30T06:47:56.776Z,101591.26
2019-05-30T06:50:25.220Z,101598.72
2019-05-30T06:52:53.636Z,101590.52
2019-05-30T06:55:23.104Z,101593.22
2019-05-30T06:57:51.689Z,101592.92
2019-05-30T07:00:21.609Z,101596.17
2019-05-30T07:02:50.375Z,101595.45
2019-05-30T07:05:19.635Z,101596.36
2019-05-30T07:07:48.556Z,101603.95
2019-05-30T07:10:17.852Z,101596.24
2019-05-30T07:12:46.298Z,101601.02
2019-05-30T07:15:15.621Z,101612.42
2019-05-30T07:17:44.055Z,101619.52
2019-05-30T07:20:12.895Z,101612.23
2019-05-30T07:22:41.373Z,101610.44
2019-05-30T07:25:10.319Z,101614.28
2019-05-30T07:27:38.755Z,101612.50
2019-05-30T07:30:08.511Z,101612.05
2019-05-30T07:32:36.943Z,101610.58
2019-05-30T07:35:08.351Z,101612.22
2019-05-30T07:37:36.835Z,101619.63
2019-05-30T07:40:07.188Z,101625.83
2019-05-30T07:42:35.600Z,101636.31
2019-05-30T07:45:05.811Z,101633.37
2019-05-30T07:47:34.330Z,101648.22
2019-05-30T07:50:02.841Z,101650.61
2019-05-30T07:52:31.254Z,101649.09
2019-05-30T07:54:59.684Z,101647.88
2019-05-30T07:57:28.145Z,101642.33
2019-05-30T07:59:56.604Z,101642.64
2019-05-30T08:02:25.290Z,101633.69
2019-05-30T08:04:53.749Z,101645.91
2019-05-30T08:07:22.156Z,101645.26
2019-05-30T08:09:50.667Z,101644.44
2019-05-30T08:12:19.142Z,101640.13
2019-05-30T08:14:47.584Z,101639.41
2019-05-30T08:17:16.179Z,101639.28
2019-05-30T08:19:44.600Z,101633.70
2019-05-30T08:22:13.008Z,101641.39
2019-05-30T08:24:41.461Z,101640.11
2019-05-30T08:27:09.861Z,101640.68
2019-05-30T08:29:38.612Z,101634.69
2019-05-30T08:32:07.407Z,101633.58
2019-05-30T08:34:36.682Z,101626.32
2019-05-30T08:37:05.216Z,101632.14
2019-05-30T08:39:33.705Z,101626.30
2019-05-30T08:42:02.337Z,101618.80
2019-05-30T08:44:31.624Z,101622.41
2019-05-30T08:47:00.286Z,101623.59
2019-05-30T08:49:29.834Z,101616.06
2019-05-30T08:51:58.292Z,101629.59
2019-05-30T08:54:26.715Z,101632.54
2019-05-30T08:56:55.136Z,101627.87
2019-05-30T08:59:23.562Z,101633.97
2019-05-30T09:01:53.241Z,101639.36
2019-05-30T09:04:21.836Z,101644.06
2019-05-30T09:06:50.277Z,101631.47
2019-05-30T09:09:18.703Z,101629.91
2019-05-30T09:11:47.134Z,101635.42
2019-05-30T09:14:15.559Z,101633.47
2019-05-30T09:16:45.907Z,101628.59
2019-05-30T09:19:14.153Z,101634.20
2019-05-30T09:21:43.224Z,101628.50
2019-05-30T09:24:11.673Z,101631.10
2019-05-30T09:26:44.238Z,101630.04
2019-05-30T09:29:10.233Z,101631.33
2019-05-30T09:31:39.970Z,101650.45
2019-05-30T09:34:11.954Z,101642.01
2019-05-30T09:36:39.929Z,101645.80
2019-05-30T09:39:09.320Z,101649.16
2019-05-30T09:41:37.739Z,101651.83
2019-05-30T09:44:07.697Z,101656.28
2019-05-30T09:46:36.129Z,101651.80
2019-05-30T09:49:06.362Z,101655.66
2019-05-30T09:51:34.813Z,101662.50
2019-05-30T09:54:03.210Z,101661.88
2019-05-30T09:56:31.639Z,101662.79
2019-05-30T09:59:00.202Z,101658.79
2019-05-30T10:01:28.579Z,101658.20
2019-05-30T10:03:57.008Z,101660.25
2019-05-30T10:06:29.630Z,101657.58
2019-05-30T10:08:55.756Z,101653.62
2019-05-30T10:11:24.448Z,101657.14
2019-05-30T10:13:53.013Z,101661.53
2019-05-30T10:16:21.421Z,101662.86
2019-05-30T10:18:50.809Z,101668.64
2019-05-30T10:21:19.478Z,101661.38
2019-05-30T10:23:49.264Z,101664.28
2019-05-30T10:26:17.911Z,101668.64
2019-05-30T10:28:47.702Z,101674.72
2019-05-30T10:31:16.245Z,101668.03
2019-05-30T10:33:46.331Z,101671.98
2019-05-30T10:36:14.927Z,101674.03
2019-05-30T10:38:43.410Z,101670.05
2019-05-30T10:41:11.823Z,101668.77
2019-05-30T10:43:40.250Z,101664.16
2019-05-30T10:46:08.728Z,101669.08
2019-05-30T10:48:37.335Z,101667.09
2019-05-30T10:51:05.811Z,101670.63
2019-05-30T10:53:37.482Z,101670.00
2019-05-30T10:56:04.521Z,101678.30
2019-05-30T10:58:33.096Z,101667.61
2019-05-30T11:01:01.582Z,101667.15
2019-05-30T11:03:30.124Z,101669.98
2019-05-30T11:06:01.594Z,101673.87
2019-05-30T11:08:33.698Z,101671.53
2019-05-30T11:11:02.224Z,101669.28
2019-05-30T11:13:30.638Z,101676.64
2019-05-30T11:15:59.074Z,101685.31
2019-05-30T11:18:27.490Z,101679.17
2019-05-30T11:20:56.354Z,101664.06
2019-05-30T11:23:24.984Z,101669.80
2019-05-30T11:25:54.683Z,101668.48
2019-05-30T11:28:23.407Z,101676.48
2019-05-30T11:30:52.765Z,101676.90
2019-05-30T11:33:21.607Z,101686.08
2019-05-30T11:35:51.038Z,101680.34
2019-05-30T11:38:19.534Z,101687.44
2019-05-30T11:40:49.191Z,101681.59
2019-05-30T11:43:17.706Z,101685.55
2019-05-30T11:45:46.179Z,101685.70
2019-05-30T11:48:14.567Z,101678.77
2019-05-30T11:50:42.999Z,101687.91
2019-05-30T11:53:11.481Z,101679.54
2019-05-30T11:55:39.933Z,101684.75
2019-05-30T11:58:08.372Z,101690.84
2019-05-30T12:00:37.665Z,101693.11
2019-05-30T12:03:08.215Z,101691.48
2019-05-30T12:05:37.765Z,101693.89
2019-05-30T12:08:06.255Z,101694.34
2019-05-30T12:10:34.979Z,101703.12
2019-05-30T12:13:03.440Z,101700.55
2019-05-30T12:15:31.933Z,101702.55
2019-05-30T12:18:02.417Z,101709.23
2019-05-30T12:20:30.675Z,101660.77
2019-05-30T12:23:00.021Z,101705.33
2019-05-30T12:25:28.623Z,101709.70
2019-05-30T12:27:58.210Z,101711.55
2019-05-30T12:30:27.700Z,101710.97
2019-05-30T12:32:56.372Z,101712.25
2019-05-30T12:35:24.983Z,101712.83
2019-05-30T12:37:58.794Z,101712.64
2019-05-30T12:40:23.916Z,101712.06
2019-05-30T12:42:55.852Z,101708.37
2019-05-30T12:45:23.428Z,101706.58
2019-05-30T12:47:52.956Z,101712.92
2019-05-30T12:50:21.810Z,101708.50
2019-05-30T12:52:50.228Z,101708.95
2019-05-30T12:55:18.885Z,101709.77
2019-05-30T12:57:47.317Z,101706.17
2019-05-30T13:00:19.277Z,101705.67
2019-05-30T13:02:47.789Z,101706.98
2019-05-30T13:05:16.542Z,101715.03
2019-05-30T13:07:44.985Z,101710.59
2019-05-30T13:10:15.027Z,101698.58
2019-05-30T13:12:43.455Z,101705.33
2019-05-30T13:15:11.945Z,101700.59
2019-05-30T13:17:40.425Z,101698.61
2019-05-30T13:20:09.950Z,101693.34
2019-05-30T13:22:38.464Z,101695.02
2019-05-30T13:25:12.666Z,101702.80
2019-05-30T13:27:41.165Z,101707.70
2019-05-30T13:30:10.813Z,101710.38
2019-05-30T13:32:39.258Z,101701.20
2019-05-30T13:35:08.227Z,101705.89
2019-05-30T13:37:36.806Z,101713.91
2019-05-30T13:40:23.368Z,101707.53
2019-05-30T13:42:38.063Z,101718.49
2019-05-30T13:45:08.508Z,101710.64
2019-05-30T13:47:39.887Z,101709.39
2019-05-30T13:50:14.012Z,101712.36
2019-05-30T13:52:42.328Z,101712.72
2019-05-30T13:55:11.000Z,101704.92
2019-05-30T13:57:39.470Z,101707.61
2019-05-30T14:00:10.713Z,101708.60
2019-05-30T14:02:39.301Z,101708.33
2019-05-30T14:05:10.362Z,101711.83
2019-05-30T14:07:42.073Z,101713.83
2019-05-30T14:10:11.144Z,101720.49
2019-05-30T14:12:39.750Z,101713.32
2019-05-30T14:15:14.049Z,101719.48
2019-05-30T14:17:41.980Z,101714.16
2019-05-30T14:20:12.822Z,101717.15
2019-05-30T14:22:41.233Z,101723.93
2019-05-30T14:25:11.740Z,101713.16
2019-05-30T14:27:40.320Z,101712.45
2019-05-30T14:30:10.999Z,101716.30
2019-05-30T14:32:39.574Z,101704.55
2019-05-30T14:35:08.735Z,101712.35
2019-05-30T14:37:37.340Z,101708.61
2019-05-30T14:40:11.319Z,101710.31
2019-05-30T14:42:39.824Z,101711.38
2019-05-30T14:45:12.416Z,101715.09
2019-05-30T14:47:42.222Z,101706.38
2019-05-30T14:50:13.052Z,101714.62
2019-05-30T14:52:41.765Z,101717.08
2019-05-30T14:55:13.237Z,101715.44
2019-05-30T14:57:45.199Z,101716.84
2019-05-30T15:00:17.640Z,101716.25
2019-05-30T15:02:46.370Z,101721.94
2019-05-30T15:05:15.774Z,101724.48
2019-05-30T15:07:44.415Z,101724.46
2019-05-30T15:10:13.589Z,101719.48
2019-05-30T15:12:42.184Z,101709.69
2019-05-30T15:15:14.186Z,101713.53
2019-05-30T15:17:41.460Z,101707.02
2019-05-30T15:20:12.145Z,101696.06
2019-05-30T15:22:40.915Z,101696.00
2019-05-30T15:25:10.115Z,101705.30
2019-05-30T15:27:38.572Z,101703.56
2019-05-30T15:30:10.538Z,101701.01
2019-05-30T15:32:39.203Z,101702.03
2019-05-30T15:35:08.805Z,101699.70
2019-05-30T15:37:40.606Z,101703.00
2019-05-30T15:40:09.487Z,101700.30
2019-05-30T15:42:37.968Z,101697.20
2019-05-30T15:45:08.034Z,101703.77
2019-05-30T15:47:36.582Z,101698.21
2019-05-30T15:50:06.244Z,101707.70
2019-05-30T15:52:34.664Z,101703.30
2019-05-30T15:55:03.242Z,101701.52
2019-05-30T15:57:31.719Z,101705.84
2019-05-30T16:00:00.145Z,101710.94
2019-05-30T16:02:28.568Z,101706.91
2019-05-30T16:04:57.014Z,101700.69
2019-05-30T16:07:25.443Z,101712.61
2019-05-30T16:09:53.868Z,101705.04
2019-05-30T16:12:22.299Z,101698.91
2019-05-30T16:14:50.733Z,101708.48
2019-05-30T16:17:19.662Z,101706.48
2019-05-30T16:19:48.190Z,101706.49
2019-05-30T16:22:18.398Z,101708.32
2019-05-30T16:24:46.922Z,101707.16
2019-05-30T16:27:15.808Z,101708.81
2019-05-30T16:29:44.364Z,101701.96
2019-05-30T16:32:13.788Z,101697.09
2019-05-30T16:34:42.284Z,101691.23
2019-05-30T16:37:10.717Z,101684.73
2019-05-30T16:39:39.143Z,101683.48
2019-05-30T16:42:07.587Z,101682.80
2019-05-30T16:44:36.029Z,101687.06
2019-05-30T16:47:04.467Z,101677.48
2019-05-30T16:49:32.888Z,101685.05
2019-05-30T16:52:01.302Z,101676.77
2019-05-30T16:54:29.749Z,101686.14
2019-05-30T16:56:58.161Z,101684.58
2019-05-30T16:59:26.888Z,101684.95
2019-05-30T17:01:58.257Z,101679.64
2019-05-30T17:04:25.463Z,101677.70
2019-05-30T17:06:53.881Z,101680.02
2019-05-30T17:09:23.457Z,101672.42
2019-05-30T17:11:51.995Z,101676.34
2019-05-30T17:14:21.736Z,101677.97
2019-05-30T17:16:50.259Z,101671.92
2019-05-30T17:19:18.699Z,101675.31
2019-05-30T17:21:47.122Z,101673.66
2019-05-30T17:24:16.883Z,101680.48
2019-05-30T17:26:45.433Z,101686.13
2019-05-30T17:29:13.874Z,101680.42
2019-05-30T17:31:42.302Z,101685.67
2019-05-30T17:34:10.729Z,101684.16
2019-05-30T17:36:39.159Z,101685.59
2019-05-30T17:39:08.690Z,101683.52
2019-05-30T17:41:37.106Z,101685.75
2019-05-30T17:44:05.612Z,101688.66
2019-05-30T17:46:34.054Z,101687.22
2019-05-30T17:49:02.509Z,101685.63
2019-05-30T17:51:30.931Z,101683.30
2019-05-30T17:53:59.424Z,101685.04
2019-05-30T17:56:28.206Z,101678.25
2019-05-30T17:58:56.756Z,101682.45
2019-05-30T18:01:26.118Z,101687.22
2019-05-30T18:03:54.801Z,101682.83
2019-05-30T18:06:24.358Z,101692.84
2019-05-30T18:08:52.828Z,101685.09
2019-05-30T18:11:21.263Z,101685.44
2019-05-30T18:13:49.670Z,101690.14
2019-05-30T18:16:18.109Z,101691.88
2019-05-30T18:18:46.529Z,101688.02
2019-05-30T18:21:14.970Z,101690.19
2019-05-30T18:23:44.892Z,101698.68
2019-05-30T18:26:13.420Z,101697.03
2019-05-30T18:28:41.835Z,101684.18
2019-05-30T18:31:10.353Z,101683.24
2019-05-30T18:33:38.781Z,101690.37
2019-05-30T18:36:07.309Z,101689.19
2019-05-30T18:38:35.732Z,101691.84
2019-05-30T18:41:11.382Z,101692.31
2019-05-30T18:43:34.547Z,101700.40
2019-05-30T18:46:03.016Z,101693.19
2019-05-30T18:48:31.664Z,101698.58
2019-05-30T18:51:00.104Z,101698.72
2019-05-30T18:53:28.515Z,101694.03
2019-05-30T18:55:56.979Z,101703.81
2019-05-30T18:58:25.414Z,101705.39
2019-05-30T19:00:53.855Z,101701.39
2019-05-30T19:03:22.354Z,101701.77
2019-05-30T19:05:50.771Z,101704.06
2019-05-30T19:08:19.312Z,101702.48
2019-05-30T19:10:47.789Z,101711.31
2019-05-30T19:13:16.296Z,101710.61
2019-05-30T19:15:44.745Z,101715.09
2019-05-30T19:18:13.193Z,101718.22
2019-05-30T19:20:41.643Z,101722.30
2019-05-30T19:23:10.077Z,101726.81
2019-05-30T19:25:38.550Z,101722.71
2019-05-30T19:28:07.769Z,101726.17
2019-05-30T19:30:36.953Z,101730.47
2019-05-30T19:33:05.710Z,101728.34
2019-05-30T19:35:35.253Z,101728.69
2019-05-30T19:38:03.910Z,101741.27
2019-05-30T19:40:33.563Z,101744.86
2019-05-30T19:43:02.161Z,101746.59
2019-05-30T19:45:31.899Z,101745.08
2019-05-30T19:48:00.409Z,101747.97
2019-05-30T19:50:28.825Z,101759.80
2019-05-30T19:52:57.257Z,101759.73
2019-05-30T19:55:25.689Z,101768.26
2019-05-30T19:57:54.118Z,101761.17
2019-05-30T20:00:22.668Z,101771.78
2019-05-30T20:02:51.136Z,101763.07
2019-05-30T20:05:19.697Z,101773.13
2019-05-30T20:07:48.137Z,101619.89
2019-05-30T20:10:16.992Z,101771.38
2019-05-30T20:12:45.432Z,101776.91
2019-05-30T20:15:14.411Z,101776.59
2019-05-30T20:17:42.847Z,101779.66
2019-05-30T20:20:11.819Z,101778.42
2019-05-30T20:22:40.330Z,101789.89
2019-05-30T20:25:10.722Z,101790.95
2019-05-30T20:27:39.278Z,101788.70
2019-05-30T20:30:09.059Z,101783.63
2019-05-30T20:32:38.795Z,101779.37
2019-05-30T20:35:07.803Z,101783.50
2019-05-30T20:37:36.759Z,101790.95
2019-05-30T20:40:14.753Z,101793.88
2019-05-30T20:42:43.329Z,101791.80
2019-05-30T20:45:12.209Z,101795.75
2019-05-30T20:47:42.508Z,101793.53
2019-05-30T20:50:15.129Z,101795.53
2019-05-30T20:52:45.407Z,101791.75
2019-05-30T20:55:13.877Z,101796.14
2019-05-30T20:57:42.665Z,101796.39
2019-05-30T21:00:12.588Z,101796.00
2019-05-30T21:02:41.060Z,101801.30
2019-05-30T21:05:09.853Z,101798.64
2019-05-30T21:07:39.822Z,101805.55
2019-05-30T21:10:09.177Z,101801.99
2019-05-30T21:12:41.879Z,101802.98
2019-05-30T21:15:08.587Z,101807.14
2019-05-30T21:17:37.739Z,101806.05
2019-05-30T21:20:11.439Z,101811.53
2019-05-30T21:22:38.573Z,101813.73
2019-05-30T21:25:10.141Z,101815.16
2019-05-30T21:27:40.870Z,101811.36
2019-05-30T21:30:10.105Z,101817.51
2019-05-30T21:32:39.799Z,101820.69
2019-05-30T21:35:09.083Z,101818.44
2019-05-30T21:37:37.754Z,101808.07
2019-05-30T21:40:09.223Z,101811.15
2019-05-30T21:42:56.804Z,101818.20
2019-05-30T21:45:08.367Z,101822.16
2019-05-30T21:47:36.799Z,101820.18
2019-05-30T21:50:09.170Z,101815.80
2019-05-30T21:52:37.624Z,101825.42
2019-05-30T21:55:09.713Z,101821.12
2019-05-30T21:57:38.130Z,101827.86
2019-05-30T22:00:12.615Z,101828.39
2019-05-30T22:02:40.786Z,101834.34
2019-05-30T22:05:09.601Z,101827.59
2019-05-30T22:07:38.056Z,101836.28
2019-05-30T22:10:06.727Z,101828.77
2019-05-30T22:12:35.160Z,101832.82
2019-05-30T22:15:05.164Z,101839.19
2019-05-30T22:17:33.608Z,101843.81
2019-05-30T22:20:02.057Z,101845.81
2019-05-30T22:22:30.567Z,101839.83
2019-05-30T22:24:58.982Z,101834.72
2019-05-30T22:27:27.429Z,101833.80
2019-05-30T22:29:55.870Z,101838.38
2019-05-30T22:32:24.351Z,101838.68
2019-05-30T22:34:53.059Z,101834.78
2019-05-30T22:37:21.590Z,101835.25
2019-05-30T22:39:51.007Z,101831.78
2019-05-30T22:42:19.523Z,101831.02
2019-05-30T22:44:48.055Z,101829.63
2019-05-30T22:47:16.473Z,101829.37
2019-05-30T22:49:44.897Z,101831.61
2019-05-30T22:52:13.339Z,101826.26
2019-05-30T22:54:41.926Z,101823.19
2019-05-30T22:57:10.387Z,101828.00
2019-05-30T22:59:38.823Z,101830.17
2019-05-30T23:02:07.293Z,101830.58
2019-05-30T23:04:35.708Z,101836.63
2019-05-30T23:07:04.212Z,101836.26
2019-05-30T23:09:32.637Z,101836.09
2019-05-30T23:12:01.086Z,101831.88
2019-05-30T23:14:29.498Z,101825.14
2019-05-30T23:16:57.940Z,101823.95
2019-05-30T23:19:26.351Z,101828.42
2019-05-30T23:21:55.122Z,101827.69
2019-05-30T23:24:23.947Z,101825.56
2019-05-30T23:26:53.665Z,101826.05
2019-05-30T23:29:22.209Z,101821.09
2019-05-30T23:31:52.037Z,101828.16
2019-05-30T23:34:20.546Z,101828.92
2019-05-30T23:36:48.963Z,101824.86
2019-05-30T23:39:17.483Z,101826.00
2019-05-30T23:41:45.987Z,101831.02
2019-05-30T23:44:14.395Z,101830.34
2019-05-30T23:46:42.834Z,101826.18
2019-05-30T23:49:11.255Z,101832.98
2019-05-30T23:51:39.679Z,101831.22
2019-05-30T23:54:08.114Z,101828.33
2019-05-30T23:56:36.537Z,101824.35
2019-05-30T23:59:04.984Z,101816.00
